Latest Weather Observations for Moruya Airport

IDN60901

Issued at 4:25 pm EDT Sunday 26 October 2014 (issued every 10 minutes, with the page automatically refreshed every 10 minutes)

About weather observations | Map of Canberra area stations | Latest observations for Canberra area | Other Formats
Station Details ID: 069148 Name: MORUYA AIRPORT AWS Lat: -35.90 Lon: 150.14 Height: 4.0 m
Data from the previous 72 hours. | See also: Recent months for locations in Aust Capital Territory
Date/Time
EDT
Tmp

°C
App
Tmp
°C
Dew
Point
°C
Rel
Hum
%
Delta-T

°C
Wind Press
QNH
hPa
Press
MSL
hPa
Rain
since
9 am
mm
Dir
 
Spd
km/h
Gust
km/h
Spd
kts
Gust
kts
26/04:00pm 18.5 16.5 17.5 94 0.6 S 24 33 13 18 1010.9 1010.8 0.0
26/03:30pm 18.9 17.0 17.7 93 0.7 S 24 35 13 19 1010.6 1010.5 0.0
26/03:00pm 19.0 16.7 17.7 92 0.8 S 26 35 14 19 1010.4 1010.3 0.0
26/02:30pm 19.3 16.9 17.4 89 1.2 SSE 26 35 14 19 1010.5 1010.4 0.0
26/02:00pm 20.0 18.2 17.8 87 1.4 SSE 24 30 13 16 1010.6 1010.5 0.0
26/01:30pm 19.9 17.9 17.5 86 1.5 SSE 24 33 13 18 1010.9 1010.8 0.0
26/01:00pm 19.7 18.2 17.8 89 1.2 SSE 22 30 12 16 1010.8 1010.7 0.0
26/12:30pm 19.3 18.9 18.1 93 0.7 SSE 17 22 9 12 1011.1 1011.0 0.0
26/12:00pm 18.9 18.6 18.2 96 0.4 SSE 17 24 9 13 1011.3 1011.2 0.0
26/11:30am 18.7 19.0 17.9 95 0.5 SSE 13 19 7 10 1011.3 1011.2 0.0
26/11:00am 19.3 19.1 18.5 95 0.5 SE 17 22 9 12 1010.9 1010.8 0.0
26/10:30am 18.5 18.8 17.8 96 0.4 SE 13 17 7 9 1011.2 1011.1 0.0
26/10:00am 18.9 19.4 18.4 97 0.3 SSE 13 17 7 9 1011.3 1011.2 0.0
26/09:55am 18.8 19.1 18.0 95 0.5 SE 13 17 7 9 1011.2 1011.1 0.0
26/09:30am 19.0 20.2 18.3 96 0.4 SE 9 15 5 8 1011.0 1010.9 0.0
26/09:00am 18.8 20.5 18.1 96 0.4 SSW 6 7 3 4 1011.0 1010.9 2.6
26/08:54am 18.6 20.3 18.1 97 0.3 SSW 6 9 3 5 1011.1 1011.0 2.6
26/08:30am 18.1 19.6 18.1 100 0.0 SW 7 11 4 6 1011.0 1010.9 2.6
26/08:00am 17.6 18.9 17.6 100 0.0 SW 7 11 4 6 1011.0 1010.9 2.6
26/07:30am 17.3 18.5 17.3 100 0.0 SSW 7 9 4 5 1011.0 1010.9 2.6
26/07:16am 17.1 18.4 17.1 100 0.0 SSW 6 7 3 4 1010.9 1010.8 2.6
26/07:00am 17.0 19.0 17.0 100 0.0 SSW 2 9 1 5 1010.8 1010.7 2.6
26/06:30am 16.8 19.1 16.8 100 0.0 CALM 0 0 0 0 1010.7 1010.6 2.6
26/06:09am 16.8 19.1 16.8 100 0.0 CALM 0 0 0 0 1010.7 1010.6 2.6
26/06:00am 16.8 19.1 16.8 100 0.0 E 0 0 0 0 1010.7 1010.6 2.6
26/05:45am 16.7 19.0 16.7 100 0.0 CALM 0 0 0 0 1010.8 1010.7 2.6
26/05:30am 16.7 19.0 16.7 100 0.0 CALM 0 0 0 0 1010.6 1010.5 2.6
26/05:00am 16.7 19.0 16.7 100 0.0 CALM 0 0 0 0 1011.0 1010.9 2.6
26/04:58am 16.7 19.0 16.7 100 0.0 CALM 0 0 0 0 1011.0 1010.9 2.6
26/04:31am 16.8 19.1 16.8 100 0.0 CALM 0 0 0 0 1011.0 1010.9 2.6
26/04:30am 16.8 19.1 16.8 100 0.0 CALM 0 0 0 0 1011.0 1010.9 2.6
26/04:00am 16.8 19.1 16.8 100 0.0 CALM 0 0 0 0 1011.3 1011.2 2.6
26/03:30am 16.8 19.1 16.8 100 0.0 CALM 0 0 0 0 1011.6 1011.5 2.6
26/03:00am 16.8 19.1 16.8 100 0.0 CALM 0 0 0 0 1012.1 1012.0 2.6
26/02:30am 16.8 19.1 16.8 100 0.0 CALM 0 0 0 0 1012.5 1012.4 2.6
26/02:00am 16.8 19.1 16.8 100 0.0 CALM 0 0 0 0 1013.2 1013.1 2.6
26/01:35am 16.8 19.1 16.8 100 0.0 CALM 0 0 0 0 1013.6 1013.5 2.6
26/01:30am 16.8 19.1 16.8 100 0.0 CALM 0 0 0 0 1013.7 1013.6 2.6
26/01:00am 16.9 19.3 16.9 100 0.0 CALM 0 0 0 0 1014.4 1014.3 2.6
26/12:30am 16.8 19.1 16.8 100 0.0 CALM 0 4 0 2 1014.8 1014.7 2.6
26/12:00am 16.9 18.9 16.9 100 0.0 E 2 7 1 4 1015.1 1015.0 2.6
 
Date/Time
EDT
Tmp

°C
App
Tmp
°C
Dew
Point
°C
Rel
Hum
%
Delta-T

°C
Wind Press
QNH
hPa
Press
MSL
hPa
Rain
since
9 am
mm
Dir
 
Spd
km/h
Gust
km/h
Spd
kts
Gust
kts
25/11:30pm 16.9 19.3 16.9 100 0.0 CALM 0 0 0 0 1015.0 1014.9 2.4
25/11:00pm 16.7 18.2 16.7 100 0.0 N 4 7 2 4 1015.6 1015.6 2.4
25/10:30pm 16.8 17.4 16.8 100 0.0 ENE 9 9 5 5 1016.0 1016.0 2.4
25/10:00pm 17.0 18.1 17.0 100 0.0 NNE 7 9 4 5 1016.2 1016.2 2.4
25/09:30pm 17.2 18.0 17.2 100 0.0 NE 9 11 5 6 1016.3 1016.3 2.2
25/09:22pm 17.4 19.2 17.4 100 0.0 NNE 4 9 2 5 1016.3 1016.3 2.2
25/09:20pm 17.4 19.6 17.4 100 0.0 N 2 9 1 5 1016.3 1016.3 2.2
25/09:00pm 17.2 19.3 17.2 100 0.0 NNW 2 7 1 4 1016.5 1016.5 2.2
25/08:30pm 17.5 19.5 17.0 97 0.3 S 2 6 1 3 1016.0 1016.0 2.2
25/08:00pm 17.4 18.0 16.9 97 0.3 S 9 13 5 7 1016.3 1016.3 2.2
25/07:30pm 17.7 18.9 17.4 98 0.2 S 7 11 4 6 1016.0 1016.0 2.2
25/07:00pm 17.8 19.1 17.0 95 0.5 ESE 6 9 3 5 1015.9 1015.9 2.2
25/06:30pm 17.7 18.8 17.1 96 0.4 SE 7 11 4 6 1015.2 1015.1 2.2
25/06:00pm 17.8 18.9 17.2 96 0.4 SE 7 11 4 6 1015.2 1015.1 2.2
25/05:30pm 18.0 18.5 17.4 96 0.4 NE 11 20 6 11 1015.7 1015.7 2.2
25/05:28pm 18.5 19.3 18.2 98 0.2 NE 11 20 6 11 1015.6 1015.6 2.2
25/05:09pm 18.1 18.7 16.8 92 0.8 SSE 9 15 5 8 1015.5 1015.5 1.4
25/05:00pm 18.2 17.7 16.0 87 1.3 S 13 15 7 8 1016.0 1016.0 0.0
25/04:30pm 18.7 18.3 16.1 85 1.5 SE 13 17 7 9 1015.2 1015.1 0.0
25/04:00pm 19.1 18.3 16.1 83 1.8 SSE 15 20 8 11 1015.4 1015.4 0.0
25/03:30pm 19.1 19.1 17.2 89 1.2 SSE 13 20 7 11 1015.7 1015.7 0.0
25/03:00pm 18.7 16.9 16.1 85 1.5 E 20 22 11 12 1015.1 1015.0 0.0
25/02:30pm 19.4 17.8 16.1 81 2.0 SE 19 24 10 13 1016.0 1016.0 0.0
25/02:00pm 19.9 18.9 16.5 81 2.0 ESE 17 24 9 13 1016.2 1016.2 0.0
25/01:30pm 19.8 18.8 16.6 82 1.9 SE 17 24 9 13 1016.1 1016.1 0.0
25/01:00pm 20.5 19.9 17.5 83 1.8 SE 17 22 9 12 1016.2 1016.2 0.0
25/12:30pm 20.6 20.0 17.6 83 1.8 SE 17 24 9 13 1016.4 1016.4 0.0
25/12:13pm 20.1 19.1 16.7 81 2.1 SE 17 22 9 12 1016.6 1016.6 0.0
25/12:02pm 20.5 20.0 17.7 84 1.7 SE 17 22 9 12 1016.6 1016.6 0.0
25/12:00pm 20.2 19.5 17.4 84 1.7 SE 17 22 9 12 1016.6 1016.6 0.0
25/11:30am 20.0 19.3 17.4 85 1.6 SE 17 22 9 12 1016.8 1016.8 0.0
25/11:00am 20.1 19.0 17.3 84 1.7 SSE 19 24 10 13 1016.9 1016.9 0.0
25/10:30am 21.0 20.1 17.8 82 2.0 SSE 19 22 10 12 1016.8 1016.8 0.0
25/10:00am 21.5 20.8 17.3 77 2.6 SSE 17 22 9 12 1016.9 1016.9 0.0
25/09:30am 21.5 20.3 15.1 67 3.8 S 15 22 8 12 1016.6 1016.6 0.0
25/09:00am 21.3 20.2 15.2 68 3.6 S 15 30 8 16 1016.4 1016.4 0.0
25/08:30am 20.1 20.8 18.0 88 1.3 SSW 11 17 6 9 1016.0 1016.0 0.0
25/08:00am 19.1 21.3 19.1 100 0.0 WSW 6 11 3 6 1015.8 1015.8 0.0
25/07:30am 18.2 20.0 18.2 100 0.0 WSW 6 9 3 5 1015.6 1015.6 0.0
25/07:00am 17.5 19.0 17.5 100 0.0 W 6 9 3 5 1015.4 1015.4 0.0
25/06:30am 16.3 16.3 16.3 100 0.0 SW 11 13 6 7 1015.0 1014.9 0.0
25/06:16am 16.7 16.9 16.7 100 0.0 SW 11 17 6 9 1014.9 1014.8 0.0
25/06:00am 15.9 16.2 15.9 100 0.0 WSW 9 13 5 7 1014.4 1014.3 0.0
25/05:30am 15.9 16.7 15.9 100 0.0 WSW 6 7 3 4 1014.0 1013.9 0.0
25/05:03am 17.0 17.7 17.0 100 0.0 WSW 9 13 5 7 1013.6 1013.5 0.0
25/05:00am 16.9 17.5 16.9 100 0.0 WSW 9 13 5 7 1013.6 1013.5 0.0
25/04:51am 17.1 17.8 17.1 100 0.0 SW 9 17 5 9 1013.4 1013.3 0.0
25/04:30am 16.3 16.7 16.3 100 0.0 WSW 9 13 5 7 1013.0 1012.9 0.0
25/04:00am 16.5 16.6 16.5 100 0.0 SW 11 15 6 8 1012.6 1012.5 0.0
25/03:30am 15.0 15.3 15.0 100 0.0 W 7 9 4 5 1012.2 1012.1 0.0
25/03:00am 15.5 17.3 15.5 100 0.0 CALM 0 0 0 0 1011.9 1011.8 0.0
25/02:30am 14.9 16.1 14.9 100 0.0 WSW 2 7 1 4 1011.9 1011.8 0.0
25/02:00am 15.4 16.0 15.4 100 0.0 W 6 7 3 4 1011.6 1011.5 0.0
25/01:30am 16.0 18.0 16.0 100 0.0 CALM 0 0 0 0 1011.5 1011.4 0.0
25/01:00am 16.0 17.6 16.0 100 0.0 NW 2 6 1 3 1011.6 1011.5 0.0
25/12:30am 16.3 17.1 16.3 100 0.0 N 7 9 4 5 1011.7 1011.6 0.0
25/12:00am 16.6 18.8 16.6 100 0.0 CALM 0 0 0 0 1011.6 1011.5 0.0
 
Date/Time
EDT
Tmp

°C
App
Tmp
°C
Dew
Point
°C
Rel
Hum
%
Delta-T

°C
Wind Press
QNH
hPa
Press
MSL
hPa
Rain
since
9 am
mm
Dir
 
Spd
km/h
Gust
km/h
Spd
kts
Gust
kts
24/11:35pm 17.5 19.7 17.5 100 0.0 ESE 2 7 1 4 1011.4 1011.3 0.0
24/11:30pm 17.8 19.8 17.8 100 0.0 SSE 4 7 2 4 1011.4 1011.3 0.0
24/11:00pm 18.4 21.0 18.4 100 0.0 SW 2 7 1 4 1011.2 1011.1 0.0
24/10:41pm 18.2 19.4 18.2 100 0.0 SW 9 11 5 6 1010.9 1010.8 0.0
24/10:30pm 18.1 19.6 18.1 100 0.0 WSW 7 9 4 5 1011.1 1011.0 0.0
24/10:00pm 18.2 19.8 18.2 100 0.0 W 7 17 4 9 1011.6 1011.5 0.0
24/09:30pm 18.3 20.9 18.3 100 0.0 E 2 6 1 3 1011.6 1011.5 0.0
24/09:00pm 18.5 20.7 18.3 99 0.1 NNE 4 7 2 4 1011.5 1011.4 0.0
24/08:30pm 18.7 20.3 18.2 97 0.3 N 7 9 4 5 1011.5 1011.4 0.0
24/08:00pm 19.5 21.2 18.5 94 0.6 N 7 13 4 7 1011.3 1011.2 0.0
24/07:37pm 19.7 20.0 18.7 94 0.6 NNE 15 20 8 11 1011.1 1011.0 0.0
24/07:30pm 19.8 19.3 18.6 93 0.7 NNE 19 22 10 12 1010.9 1010.8 0.0
24/07:00pm 19.8 19.6 18.5 92 0.8 NNE 17 20 9 11 1010.9 1010.8 0.0
24/06:59pm 19.8 19.6 18.5 92 0.8 NNE 17 20 9 11 1010.9 1010.8 0.0
24/06:40pm 20.4 20.2 18.5 89 1.2 NE 17 22 9 12 1010.8 1010.7 0.0
24/06:30pm 20.6 20.0 18.5 88 1.3 NNE 19 24 10 13 1010.7 1010.6 0.0
24/06:00pm 21.4 20.3 18.6 84 1.8 NNE 22 28 12 15 1010.6 1010.5 0.0
24/05:30pm 21.7 20.4 19.1 85 1.6 NNE 24 30 13 16 1010.6 1010.5 0.0
24/05:00pm 21.9 19.4 18.9 83 1.9 NNE 30 33 16 18 1010.5 1010.4 0.0
24/04:30pm 21.8 19.3 18.8 83 1.9 NNE 30 37 16 20 1010.7 1010.6 0.0
24/04:00pm 22.1 20.1 19.1 83 1.9 NNE 28 35 15 19 1011.0 1010.9 0.0
24/03:30pm 22.5 20.9 19.3 82 2.0 NNE 26 33 14 18 1011.4 1011.3 0.0
24/03:00pm 21.5 19.0 18.9 85 1.6 NNE 30 37 16 20 1012.0 1011.9 0.0
24/02:30pm 22.5 20.9 19.3 82 2.0 NNE 26 35 14 19 1012.4 1012.3 0.0
24/02:00pm 21.6 20.1 18.6 83 1.9 NE 24 32 13 17 1013.1 1013.0 0.0
24/01:30pm 22.6 20.6 18.4 77 2.6 NE 26 32 14 17 1013.5 1013.4 0.0
24/01:00pm 22.8 20.7 19.0 79 2.4 NE 28 35 15 19 1014.1 1014.0 0.0
24/12:30pm 22.8 21.3 19.4 81 2.2 NE 26 35 14 19 1014.7 1014.6 0.0
24/12:00pm 22.1 20.5 19.1 83 1.9 NE 26 33 14 18 1015.5 1015.5 0.0
24/11:30am 22.2 21.1 19.4 84 1.8 NE 24 35 13 19 1016.2 1016.2 0.0
24/11:00am 22.7 22.4 19.5 82 2.0 NNE 20 24 11 13 1016.9 1016.9 0.0
24/10:30am 21.4 20.5 17.8 80 2.2 NNE 19 26 10 14 1017.3 1017.3 0.0
24/10:00am 20.7 22.2 19.0 90 1.1 NE 9 13 5 7 1017.9 1017.9 0.0
24/09:30am 20.8 21.6 19.1 90 1.1 N 13 17 7 9 1018.3 1018.3 0.0
24/09:00am 19.7 21.2 18.9 95 0.5 N 9 15 5 8 1018.5 1018.5 1.0
24/08:30am 19.3 22.3 19.3 100 0.0 N 2 9 1 5 1018.5 1018.5 1.0
24/08:00am 17.9 19.5 17.9 100 0.0 NW 6 9 3 5 1018.8 1018.8 1.0
24/07:30am 17.3 18.5 17.3 100 0.0 WNW 7 9 4 5 1019.0 1019.0 1.0
24/07:00am 16.5 17.6 16.5 100 0.0 WNW 6 9 3 5 1018.8 1018.8 1.0
24/06:30am 16.2 17.1 16.2 100 0.0 W 6 9 3 5 1018.4 1018.4 1.0
24/06:00am 16.4 17.2 16.4 100 0.0 W 7 11 4 6 1018.8 1018.8 1.0
24/05:30am 16.5 17.9 16.5 100 0.0 WSW 4 7 2 4 1018.4 1018.4 1.0
24/05:00am 16.6 17.1 16.6 100 0.0 NW 9 11 5 6 1018.3 1018.3 0.8
24/04:59am 16.6 17.1 16.6 100 0.0 NW 9 13 5 7 1018.3 1018.3 0.8
24/04:50am 16.6 17.1 16.6 100 0.0 W 9 13 5 7 1018.4 1018.4 0.8
24/04:44am 16.5 17.0 16.5 100 0.0 W 9 13 5 7 1018.7 1018.7 0.8
24/04:31am 16.5 17.4 16.5 100 0.0 SW 7 11 4 6 1018.2 1018.2 0.4
24/04:30am 16.5 17.4 16.5 100 0.0 SW 7 13 4 7 1018.3 1018.3 0.4
24/04:19am 16.2 16.2 16.2 100 0.0 W 11 15 6 8 1018.8 1018.8 0.4
24/04:00am 15.7 17.6 15.7 100 0.0 CALM 0 0 0 0 1018.0 1018.0 0.4
24/03:42am 15.7 17.6 15.7 100 0.0 CALM 0 0 0 0 1018.5 1018.5 0.4
24/03:30am 15.9 17.9 15.9 100 0.0 CALM 0 0 0 0 1018.5 1018.5 0.4
24/03:00am 16.5 18.3 16.5 100 0.0 W 2 9 1 5 1019.0 1019.0 0.4
24/02:30am 16.5 17.4 16.5 100 0.0 WSW 7 11 4 6 1019.5 1019.5 0.2
24/02:00am 16.7 18.6 16.7 100 0.0 NW 2 7 1 4 1018.9 1018.9 0.2
24/01:30am 17.4 18.6 17.4 100 0.0 N 7 13 4 7 1019.1 1019.1 0.2
24/01:00am 17.8 18.4 17.8 100 0.0 SE 11 15 6 8 1019.1 1019.1 0.2
24/12:30am 17.7 19.2 17.7 100 0.0 NNE 6 11 3 6 1019.0 1019.0 0.2
24/12:00am 18.0 20.3 17.8 99 0.1 N 2 7 1 4 1019.1 1019.1 0.2
 
Date/Time
EDT
Tmp

°C
App
Tmp
°C
Dew
Point
°C
Rel
Hum
%
Delta-T

°C
Wind Press
QNH
hPa
Press
MSL
hPa
Rain
since
9 am
mm
Dir
 
Spd
km/h
Gust
km/h
Spd
kts
Gust
kts
23/11:30pm 18.4 20.2 18.2 99 0.1 NNW 6 9 3 5 1019.3 1019.3 0.2
23/11:00pm 18.6 18.7 18.4 99 0.1 NW 15 20 8 11 1019.5 1019.5 0.2
23/10:30pm 17.8 16.7 17.8 100 0.0 N 20 28 11 15 1018.4 1018.4 0.2
23/10:28pm 17.8 16.7 17.8 100 0.0 N 20 28 11 15 1018.6 1018.6 0.2
23/10:05pm 18.2 18.2 18.2 100 0.0 WNW 15 20 8 11 1020.7 1020.7 0.2
23/10:00pm 18.3 16.7 18.3 100 0.0 NE 24 35 13 19 1018.7 1018.7 0.2
23/09:57pm 18.3 17.1 18.3 100 0.0 NE 22 28 12 15 1018.9 1018.9 0.2
23/09:30pm 19.0 20.4 17.8 93 0.7 SE 7 13 4 7 1021.0 1021.0 0.0
23/09:00pm 18.9 19.9 17.7 93 0.7 S 9 13 5 7 1021.3 1021.3 0.0
23/08:30pm 18.7 20.1 17.7 94 0.6 SW 7 9 4 5 1020.7 1020.7 0.0
23/08:00pm 18.4 19.5 18.1 98 0.2 WSW 9 13 5 7 1019.7 1019.7 0.0
23/07:30pm 18.6 20.6 17.9 96 0.4 W 4 7 2 4 1018.9 1018.9 0.0
23/07:00pm 19.1 19.8 17.9 93 0.7 ESE 11 15 6 8 1018.3 1018.3 0.0
23/06:30pm 19.9 21.4 18.0 89 1.2 SE 7 11 4 6 1018.8 1018.8 0.0
23/06:00pm 20.2 21.7 18.0 87 1.4 S 7 11 4 6 1018.9 1018.9 0.0
23/05:30pm 20.0 21.1 18.8 93 0.8 SSE 11 17 6 9 1018.4 1018.4 0.0
23/05:00pm 20.2 20.8 18.7 91 0.9 ESE 13 15 7 8 1018.0 1018.0 0.0
23/04:30pm 21.0 22.2 18.2 84 1.7 ESE 9 13 5 7 1018.0 1018.0 0.0

Latest Capital City Observations: Canberra | Sydney | Melbourne | Brisbane | Adelaide | Perth | Hobart | Darwin

Other Formats:

Comma delimited format used in spreadsheet applications
http://www.bom.gov.au/fwo/IDN60903/IDN60903.95937.axf

JavaScript Object Notation format (JSON) in row-major order
http://www.bom.gov.au/fwo/IDN60903/IDN60903.95937.json